Time,TemperatureF,DewpointF,PressureIn,WindDirection,WindDirectionDegrees,WindSpeedMPH,WindSpeedGustMPH,Humidity,HourlyPrecipIn,Conditions,Clouds,dailyrainin,SoftwareType,DateUTC
2013-07-26 00:07:00,61.1,59.0,30.06,East,86,7.0,11.0,94,0.00,,,0.00,weatherlink.com 1.10,2013-07-26 04:07:00,
2013-07-26 00:22:00,61.5,60.0,30.06,ENE,71,5.0,13.0,93,0.00,,,0.00,weatherlink.com 1.10,2013-07-26 04:22:00,
2013-07-26 00:37:00,61.7,60.0,30.06,NE,51,9.0,12.0,93,0.00,,,0.00,weatherlink.com 1.10,2013-07-26 04:37:00,
2013-07-26 00:52:00,61.8,60.0,30.05,ENE,70,8.0,15.0,92,0.00,,,0.00,weatherlink.com 1.10,2013-07-26 04:52:00,
2013-07-26 01:07:00,61.7,59.0,30.05,NNE,28,4.0,13.0,92,0.00,,,0.00,weatherlink.com 1.10,2013-07-26 05:07:00,
2013-07-26 01:22:00,61.7,60.0,30.05,NE,49,5.0,12.0,93,0.00,,,0.00,weatherlink.com 1.10,2013-07-26 05:22:00,
2013-07-26 01:37:00,61.6,60.0,30.04,NE,50,6.0,11.0,93,0.00,,,0.00,weatherlink.com 1.10,2013-07-26 05:37:00,
2013-07-26 01:52:00,61.8,60.0,30.04,NE,51,3.0,11.0,93,0.00,,,0.00,weatherlink.com 1.10,2013-07-26 05:52:00,
2013-07-26 02:07:00,61.8,60.0,30.04,NE,45,6.0,14.0,93,0.01,,,0.01,weatherlink.com 1.10,2013-07-26 06:07:00,
2013-07-26 02:22:00,61.7,60.0,30.04,NNE,15,9.0,13.0,93,0.01,,,0.01,weatherlink.com 1.10,2013-07-26 06:22:00,
2013-07-26 02:37:00,62.0,60.0,30.04,NE,42,3.0,11.0,94,0.01,,,0.01,weatherlink.com 1.10,2013-07-26 06:37:00,
2013-07-26 02:52:00,62.1,60.0,30.03,NE,34,4.0,9.0,94,0.02,,,0.02,weatherlink.com 1.10,2013-07-26 06:52:00,
2013-07-26 03:07:00,62.1,60.0,30.02,ENE,58,10.0,15.0,93,0.01,,,0.02,weatherlink.com 1.10,2013-07-26 07:07:00,
2013-07-26 03:22:00,62.0,60.0,30.02,NE,54,4.0,11.0,93,0.01,,,0.02,weatherlink.com 1.10,2013-07-26 07:22:00,
2013-07-26 03:37:00,62.0,60.0,30.01,NE,37,8.0,13.0,94,0.01,,,0.03,weatherlink.com 1.10,2013-07-26 07:37:00,
2013-07-26 03:52:00,61.8,60.0,30.01,NNE,30,8.0,13.0,94,0.03,,,0.05,weatherlink.com 1.10,2013-07-26 07:52:00,
2013-07-26 04:07:00,61.4,60.0,30.00,NNE,32,6.0,14.0,95,0.05,,,0.07,weatherlink.com 1.10,2013-07-26 08:07:00,
2013-07-26 04:22:00,61.4,60.0,30.00,NE,34,8.0,14.0,95,0.08,,,0.10,weatherlink.com 1.10,2013-07-26 08:22:00,
2013-07-26 04:38:00,61.4,60.0,30.00,NNE,24,12.0,13.0,95,0.11,,,0.14,weatherlink.com 1.10,2013-07-26 08:38:00,
2013-07-26 04:52:00,61.5,60.0,30.00,NNE,17,6.0,14.0,96,0.15,,,0.20,weatherlink.com 1.10,2013-07-26 08:52:00,
2013-07-26 05:07:00,61.5,60.0,30.00,NE,40,5.0,19.0,95,0.19,,,0.26,weatherlink.com 1.10,2013-07-26 09:07:00,
2013-07-26 05:22:00,61.6,61.0,30.00,NNE,22,9.0,14.0,96,0.18,,,0.28,weatherlink.com 1.10,2013-07-26 09:22:00,
2013-07-26 05:37:00,61.6,61.0,29.99,East,84,5.0,14.0,96,0.16,,,0.30,weatherlink.com 1.10,2013-07-26 09:37:00,
2013-07-26 05:52:00,61.7,60.0,29.99,NNE,19,6.0,13.0,95,0.12,,,0.32,weatherlink.com 1.10,2013-07-26 09:52:00,
2013-07-26 06:07:00,61.7,60.0,29.99,NE,55,7.0,14.0,95,0.07,,,0.33,weatherlink.com 1.10,2013-07-26 10:07:00,
2013-07-26 06:22:00,62.0,61.0,29.99,ENE,78,3.0,12.0,95,0.06,,,0.34,weatherlink.com 1.10,2013-07-26 10:22:00,
2013-07-26 06:37:00,62.1,61.0,29.99,East,91,6.0,10.0,95,0.05,,,0.35,weatherlink.com 1.10,2013-07-26 10:37:00,
2013-07-26 06:53:00,62.2,61.0,30.00,East,86,2.0,12.0,95,0.04,,,0.36,weatherlink.com 1.10,2013-07-26 10:53:00,
2013-07-26 07:07:00,62.4,61.0,29.99,North,360,8.0,12.0,95,0.03,,,0.36,weatherlink.com 1.10,2013-07-26 11:07:00,
2013-07-26 07:22:00,62.4,61.0,29.99,North,11,7.0,14.0,95,0.04,,,0.38,weatherlink.com 1.10,2013-07-26 11:22:00,
2013-07-26 07:38:00,62.5,61.0,29.99,ENE,61,9.0,12.0,95,0.04,,,0.39,weatherlink.com 1.10,2013-07-26 11:38:00,
2013-07-26 07:53:00,62.4,61.0,29.99,NNE,30,9.0,16.0,95,0.04,,,0.40,weatherlink.com 1.10,2013-07-26 11:53:00,
2013-07-26 08:08:00,62.6,61.0,29.99,NE,52,4.0,15.0,95,0.04,,,0.40,weatherlink.com 1.10,2013-07-26 12:08:00,
2013-07-26 08:23:00,62.9,62.0,29.98,NNE,23,7.0,17.0,95,0.03,,,0.41,weatherlink.com 1.10,2013-07-26 12:23:00,
2013-07-26 08:38:00,63.2,62.0,29.98,ENE,70,9.0,20.0,94,0.02,,,0.41,weatherlink.com 1.10,2013-07-26 12:38:00,
2013-07-26 08:53:00,63.2,62.0,29.98,NE,50,4.0,17.0,94,0.02,,,0.42,weatherlink.com 1.10,2013-07-26 12:53:00,
2013-07-26 09:08:00,63.3,62.0,29.98,NNE,23,11.0,19.0,94,0.03,,,0.43,weatherlink.com 1.10,2013-07-26 13:08:00,
2013-07-26 09:23:00,63.4,62.0,29.97,NNE,30,7.0,15.0,94,0.03,,,0.44,weatherlink.com 1.10,2013-07-26 13:23:00,
2013-07-26 09:38:00,63.1,61.0,29.97,NE,40,3.0,17.0,94,0.03,,,0.44,weatherlink.com 1.10,2013-07-26 13:38:00,
2013-07-26 09:53:00,63.3,62.0,29.97,NNE,26,14.0,16.0,95,0.03,,,0.45,weatherlink.com 1.10,2013-07-26 13:53:00,
2013-07-26 10:08:00,63.4,62.0,29.96,NE,36,12.0,17.0,95,0.02,,,0.45,weatherlink.com 1.10,2013-07-26 14:08:00,
2013-07-26 10:23:00,63.6,62.0,29.96,NE,39,9.0,18.0,95,0.01,,,0.45,weatherlink.com 1.10,2013-07-26 14:23:00,
2013-07-26 10:38:00,63.8,62.0,29.96,North,9,2.0,19.0,94,0.01,,,0.45,weatherlink.com 1.10,2013-07-26 14:38:00,
2013-07-26 10:53:00,64.0,62.0,29.96,NE,43,8.0,15.0,94,0.00,,,0.45,weatherlink.com 1.10,2013-07-26 14:53:00,
2013-07-26 11:08:00,64.2,63.0,29.96,NE,34,11.0,18.0,94,0.00,,,0.45,weatherlink.com 1.10,2013-07-26 15:08:00,
2013-07-26 11:23:00,64.5,63.0,29.96,NE,34,4.0,14.0,93,0.00,,,0.45,weatherlink.com 1.10,2013-07-26 15:23:00,
2013-07-26 11:38:00,64.7,63.0,29.96,NE,50,8.0,17.0,93,0.00,,,0.45,weatherlink.com 1.10,2013-07-26 15:38:00,
2013-07-26 11:53:00,64.8,63.0,29.96,NNW,341,4.0,15.0,94,0.01,,,0.46,weatherlink.com 1.10,2013-07-26 15:53:00,
2013-07-26 12:08:00,64.9,63.0,29.96,NE,36,8.0,18.0,94,0.01,,,0.46,weatherlink.com 1.10,2013-07-26 16:08:00,
2013-07-26 12:23:00,65.2,64.0,29.96,NNE,24,9.0,10.0,94,0.01,,,0.46,weatherlink.com 1.10,2013-07-26 16:23:00,
2013-07-26 12:38:00,65.3,64.0,29.95,NNE,24,8.0,12.0,95,0.01,,,0.46,weatherlink.com 1.10,2013-07-26 16:38:00,
2013-07-26 12:53:00,65.8,64.0,29.94,North,5,0.0,12.0,94,0.00,,,0.46,weatherlink.com 1.10,2013-07-26 16:53:00,
2013-07-26 13:08:00,66.8,64.0,29.94,NNE,26,9.0,17.0,91,0.00,,,0.46,weatherlink.com 1.10,2013-07-26 17:08:00,
2013-07-26 13:23:00,67.6,64.0,29.94,NNE,13,3.0,18.0,89,0.00,,,0.46,weatherlink.com 1.10,2013-07-26 17:23:00,
2013-07-26 13:38:00,67.9,64.0,29.94,NNW,338,7.0,16.0,88,0.00,,,0.46,weatherlink.com 1.10,2013-07-26 17:38:00,
2013-07-26 13:53:00,68.3,65.0,29.93,NNW,342,6.0,20.0,88,0.00,,,0.46,weatherlink.com 1.10,2013-07-26 17:53:00,
2013-07-26 14:08:00,69.0,65.0,29.93,East,88,6.0,18.0,87,0.00,,,0.46,weatherlink.com 1.10,2013-07-26 18:08:00,
2013-07-26 14:23:00,69.5,65.0,29.93,NW,323,9.0,18.0,86,0.00,,,0.46,weatherlink.com 1.10,2013-07-26 18:23:00,
2013-07-26 14:38:00,69.9,65.0,29.93,NNW,331,7.0,12.0,85,0.00,,,0.46,weatherlink.com 1.10,2013-07-26 18:38:00,
2013-07-26 14:53:00,70.2,66.0,29.93,North,5,10.0,15.0,85,0.00,,,0.46,weatherlink.com 1.10,2013-07-26 18:53:00,
2013-07-26 15:08:00,69.7,65.0,29.94,NNW,341,5.0,13.0,85,0.00,,,0.46,weatherlink.com 1.10,2013-07-26 19:08:00,
2013-07-26 15:23:00,69.3,65.0,29.94,NNW,343,9.0,14.0,87,0.00,,,0.46,weatherlink.com 1.10,2013-07-26 19:23:00,
2013-07-26 15:38:00,68.5,65.0,29.94,North,9,8.0,17.0,88,0.00,,,0.46,weatherlink.com 1.10,2013-07-26 19:38:00,
2013-07-26 15:53:00,68.4,65.0,29.94,NW,320,9.0,18.0,89,0.00,,,0.46,weatherlink.com 1.10,2013-07-26 19:53:00,
2013-07-26 16:08:00,68.8,66.0,29.94,NNW,330,5.0,12.0,89,0.00,,,0.46,weatherlink.com 1.10,2013-07-26 20:08:00,
2013-07-26 16:23:00,69.6,65.0,29.93,NNE,19,0.0,16.0,86,0.00,,,0.46,weatherlink.com 1.10,2013-07-26 20:23:00,
2013-07-26 16:38:00,69.9,64.0,29.94,North,351,10.0,21.0,82,0.00,,,0.46,weatherlink.com 1.10,2013-07-26 20:38:00,
2013-07-26 16:53:00,70.2,65.0,29.94,North,360,3.0,16.0,82,0.00,,,0.46,weatherlink.com 1.10,2013-07-26 20:53:00,
2013-07-26 17:08:00,70.4,65.0,29.95,NNW,336,4.0,18.0,83,0.00,,,0.46,weatherlink.com 1.10,2013-07-26 21:08:00,
2013-07-26 17:23:00,70.4,65.0,29.95,NW,310,2.0,18.0,84,0.00,,,0.46,weatherlink.com 1.10,2013-07-26 21:23:00,
2013-07-26 17:38:00,70.4,65.0,29.95,NW,308,5.0,13.0,84,0.01,,,0.47,weatherlink.com 1.10,2013-07-26 21:38:00,
2013-07-26 17:53:00,70.0,66.0,29.96,NNW,334,4.0,9.0,86,0.02,,,0.48,weatherlink.com 1.10,2013-07-26 21:53:00,
2013-07-26 18:08:00,70.1,66.0,29.96,North,355,0.0,7.0,87,0.02,,,0.48,weatherlink.com 1.10,2013-07-26 22:08:00,
2013-07-26 18:23:00,70.2,66.0,29.96,NW,304,4.0,8.0,87,0.03,,,0.49,weatherlink.com 1.10,2013-07-26 22:23:00,
2013-07-26 18:38:00,70.1,67.0,29.97,WNW,303,1.0,4.0,89,0.03,,,0.50,weatherlink.com 1.10,2013-07-26 22:38:00,
2013-07-26 18:53:00,69.8,67.0,29.97,WNW,303,0.0,1.0,91,0.03,,,0.51,weatherlink.com 1.10,2013-07-26 22:53:00,
2013-07-26 19:08:00,69.5,67.0,29.97,WNW,303,0.0,0.0,92,0.05,,,0.53,weatherlink.com 1.10,2013-07-26 23:08:00,
2013-07-26 19:24:00,69.2,67.0,29.97,WNW,303,0.0,0.0,93,0.05,,,0.54,weatherlink.com 1.10,2013-07-26 23:24:00,
2013-07-26 19:39:00,69.0,67.0,29.97,WNW,303,0.0,2.0,94,0.07,,,0.57,weatherlink.com 1.10,2013-07-26 23:39:00,
2013-07-26 19:54:00,68.9,68.0,29.97,WNW,303,0.0,3.0,95,0.07,,,0.58,weatherlink.com 1.10,2013-07-26 23:54:00,
2013-07-26 20:09:00,69.0,67.0,29.97,WNW,302,4.0,6.0,94,0.05,,,0.58,weatherlink.com 1.10,2013-07-27 00:09:00,
2013-07-26 20:24:00,69.3,67.0,29.97,WNW,293,6.0,9.0,92,0.04,,,0.59,weatherlink.com 1.10,2013-07-27 00:24:00,
2013-07-26 20:39:00,69.1,66.0,29.97,WNW,302,7.0,9.0,89,0.02,,,0.59,weatherlink.com 1.10,2013-07-27 00:39:00,
2013-07-26 20:54:00,68.7,65.0,29.98,NW,313,3.0,12.0,88,0.01,,,0.59,weatherlink.com 1.10,2013-07-27 00:54:00,
2013-07-26 21:09:00,68.5,65.0,29.98,WNW,300,7.0,10.0,87,0.01,,,0.59,weatherlink.com 1.10,2013-07-27 01:09:00,
2013-07-26 21:24:00,68.3,64.0,29.99,WNW,294,6.0,13.0,86,0.00,,,0.59,weatherlink.com 1.10,2013-07-27 01:24:00,
2013-07-26 21:39:00,68.3,64.0,29.99,WNW,293,7.0,11.0,86,0.00,,,0.59,weatherlink.com 1.10,2013-07-27 01:39:00,
2013-07-26 21:54:00,68.3,64.0,29.99,WNW,292,6.0,11.0,86,0.00,,,0.59,weatherlink.com 1.10,2013-07-27 01:54:00,
2013-07-26 22:09:00,68.2,64.0,30.00,WNW,303,5.0,11.0,85,0.00,,,0.59,weatherlink.com 1.10,2013-07-27 02:09:00,
2013-07-26 22:24:00,68.0,64.0,30.00,WNW,290,4.0,8.0,86,0.00,,,0.59,weatherlink.com 1.10,2013-07-27 02:24:00,
2013-07-26 22:39:00,67.6,64.0,30.00,WNW,289,6.0,9.0,87,0.00,,,0.59,weatherlink.com 1.10,2013-07-27 02:39:00,
2013-07-26 22:54:00,67.4,64.0,30.00,WNW,292,7.0,9.0,88,0.00,,,0.59,weatherlink.com 1.10,2013-07-27 02:54:00,
2013-07-26 23:09:00,67.3,64.0,30.00,WNW,297,4.0,9.0,88,0.00,,,0.59,weatherlink.com 1.10,2013-07-27 03:09:00,
2013-07-26 23:24:00,67.9,63.0,30.00,NW,306,7.0,14.0,85,0.00,,,0.59,weatherlink.com 1.10,2013-07-27 03:24:00,
2013-07-26 23:39:00,67.6,63.0,30.00,NW,309,4.0,7.0,86,0.00,,,0.59,weatherlink.com 1.10,2013-07-27 03:39:00,
2013-07-26 23:54:00,67.1,63.0,30.01,WNW,290,6.0,8.0,86,0.00,,,0.59,weatherlink.com 1.10,2013-07-27 03:54:00,